This is the latest recevied weather packets stored in our database for station/object KB2M. If no packets are shown the sender has not sent any weather packets the latest 10 day(s).
| Time | Temp. | Humidity | Pressure | Rain* | Wind** | Luminosity | Snow |
|---|---|---|---|---|---|---|---|
| 1777303893 | 22.78° C | 80% | 1020.3 hPa | 0 mm | - | - | - |
| 1777303293 | 22.78° C | 79% | 1019.9 hPa | 0 mm | - | - | - |
| 1777302693 | 22.78° C | 80% | 1019.9 hPa | 0 mm | - | - | - |
| 1777302063 | 22.78° C | 81% | 1019.9 hPa | 0 mm | - | - | - |
| 1777301433 | 22.78° C | 80% | 1019.9 hPa | 0 mm | - | - | - |
| 1777300833 | 22.78° C | 80% | 1019.6 hPa | 0 mm | - | - | - |
| 1777300203 | 23.33° C | 79% | 1019.6 hPa | 0 mm | - | - | - |
| 1777299573 | 23.33° C | 80% | 1019.6 hPa | 0 mm | - | - | - |
| 1777298973 | 22.78° C | 83% | 1019.6 hPa | 0 mm | - | - | - |
| 1777298343 | 22.78° C | 85% | 1019.3 hPa | 0 mm | - | - | - |
| 1777297743 | 22.78° C | 85% | 1018.9 hPa | 0 mm | - | - | - |
| 1777297114 | 22.78° C | 81% | 1018.9 hPa | 0 mm | - | - | - |
| 1777296513 | 22.78° C | 82% | 1018.9 hPa | 0.25 mm | - | - | - |
| 1777295913 | 22.22° C | 84% | 1018.6 hPa | 0.25 mm | - | - | - |
| 1777295313 | 22.22° C | 85% | 1018.6 hPa | 0.25 mm | - | - | - |
| 1777294712 | 22.22° C | 85% | 1018.6 hPa | 0.25 mm | - | - | - |
| 1777294112 | 21.67° C | 91% | 1018.6 hPa | 0.25 mm | - | - | - |
| 1777293512 | 21.11° C | 93% | 1018.6 hPa | 0.25 mm | - | - | - |
| 1777292882 | 21.11° C | 92% | 1018.2 hPa | 0 mm | - | - | - |
| 1777292281 | 22.22° C | 88% | 1018.2 hPa | 0 mm | - | - | - |
| 1777291681 | 22.78° C | 87% | 1018.2 hPa | 0 mm | - | - | - |
| 1777291080 | 22.78° C | 86% | 1017.9 hPa | 0 mm | - | - | - |
| 1777290480 | 22.78° C | 87% | 1017.9 hPa | 0 mm | - | - | - |
| 1777289880 | 22.22° C | 87% | 1017.6 hPa | 0 mm | - | - | - |
| 1777289279 | 22.22° C | 86% | 1017.6 hPa | 0 mm | - | - | - |
* Rain latest hour (hover to see other rain measurements)
** Current wind speed in m/s (hover to see current wind gust speed)